Time;durP1;ratioP1;P1;durP2;ratioP2;P2;SDS_P1;SDS_P2;PMS_P1;PMS_P2;Temp;Humidity;BMP_temperature;BMP_pressure;BME280_temperature;BME280_humidity;BME280_pressure;Samples;Min_cycle;Max_cycle;Signal;HPM_P1;HPM_P2
2022/02/17 00:01:56;;;;;;;4.63;1.20;;;;;;;19.32;55.08;99266.56;5014205;28;20064;-65
2022/02/17 00:04:21;;;;;;;2.92;0.80;;;;;;;19.30;54.77;99287.03;5013526;28;20341;-66
2022/02/17 00:06:46;;;;;;;4.73;1.10;;;;;;;19.30;54.78;99269.38;5013439;28;20034;-66
2022/02/17 00:09:11;;;;;;;5.40;1.43;;;;;;;19.28;54.78;99267.88;5013613;28;20275;-66
2022/02/17 00:11:41;;;;;;;2.50;0.90;;;;;;;19.28;54.80;99263.44;5013610;28;20030;-65
2022/02/17 00:14:06;;;;;;;4.03;1.17;;;;;;;19.27;54.99;99259.13;5013113;28;20326;-66
2022/02/17 00:16:31;;;;;;;3.03;1.00;;;;;;;19.26;54.60;99257.47;5013627;28;20058;-66
2022/02/17 00:18:57;;;;;;;4.87;1.37;;;;;;;19.26;55.43;99248.75;5013872;28;20767;-66
2022/02/17 00:21:22;;;;;;;5.30;1.50;;;;;;;19.25;55.01;99265.56;5012518;28;20340;-65
2022/02/17 00:23:47;;;;;;;2.70;1.00;;;;;;;19.24;54.82;99269.22;5013777;28;20087;-66
2022/02/17 00:26:12;;;;;;;4.43;1.40;;;;;;;19.23;54.86;99276.31;5013165;28;20104;-66
2022/02/17 00:28:38;;;;;;;4.23;1.17;;;;;;;19.22;55.17;99285.25;5012589;28;20049;-65
2022/02/17 00:31:03;;;;;;;6.03;1.50;;;;;;;19.21;55.44;99289.69;5013631;28;20306;-66
2022/02/17 00:33:28;;;;;;;4.53;1.42;;;;;;;19.19;54.96;99286.38;5012983;28;20053;-65
2022/02/17 00:35:53;;;;;;;4.13;1.50;;;;;;;19.19;54.84;99293.50;5012695;28;20113;-65
2022/02/17 00:38:19;;;;;;;3.33;1.20;;;;;;;19.17;54.91;99298.94;5013108;28;20762;-66
2022/02/17 00:40:44;;;;;;;4.55;1.58;;;;;;;19.16;55.31;99297.28;5013238;28;20763;-66
2022/02/17 00:43:09;;;;;;;3.72;1.33;;;;;;;19.15;54.60;99316.78;5012118;28;20029;-65
2022/02/17 00:45:35;;;;;;;7.20;1.40;;;;;;;19.14;54.68;99314.31;5013019;28;20026;-65
2022/02/17 00:48:00;;;;;;;5.30;1.38;;;;;;;19.13;54.52;99302.91;5013129;28;20032;-65
2022/02/17 00:50:25;;;;;;;5.25;1.42;;;;;;;19.11;54.63;99326.03;5012122;28;20038;-65
2022/02/17 00:52:51;;;;;;;4.72;1.50;;;;;;;19.11;54.14;99320.75;5013116;28;20030;-65
2022/02/17 00:55:16;;;;;;;5.47;1.90;;;;;;;19.10;54.35;99334.09;5012032;28;20032;-65
2022/02/17 00:57:41;;;;;;;6.30;1.37;;;;;;;19.08;54.23;99317.63;5012767;28;20030;-65
2022/02/17 01:00:07;;;;;;;5.93;1.50;;;;;;;19.05;54.26;99323.22;5012795;28;20291;-65
2022/02/17 01:02:32;;;;;;;4.57;1.23;;;;;;;19.02;54.34;99330.47;5012052;28;20363;-65
2022/02/17 01:04:58;;;;;;;5.90;1.60;;;;;;;19.03;54.31;99329.50;5012869;28;20038;-65
2022/02/17 01:07:23;;;;;;;4.60;1.47;;;;;;;19.00;54.10;99329.00;5012116;28;20057;-65
2022/02/17 01:09:48;;;;;;;5.00;1.63;;;;;;;18.98;53.73;99347.66;5012121;28;20290;-65
2022/02/17 01:12:14;;;;;;;6.45;1.85;;;;;;;18.97;53.34;99345.19;5012491;28;20026;-65
2022/02/17 01:14:39;;;;;;;4.50;1.40;;;;;;;18.93;53.54;99352.63;5012973;28;20416;-65
2022/02/17 01:17:05;;;;;;;5.05;1.50;;;;;;;18.94;53.26;99361.34;5012065;28;20041;-65
2022/02/17 01:19:30;;;;;;;4.68;1.63;;;;;;;18.93;53.36;99367.63;5012500;28;20038;-65
2022/02/17 01:21:56;;;;;;;7.40;1.50;;;;;;;18.92;53.43;99381.81;5012895;28;20029;-65
2022/02/17 01:24:21;;;;;;;4.63;1.52;;;;;;;18.91;53.37;99359.84;5011626;28;20278;-65
2022/02/17 01:26:47;;;;;;;6.85;1.70;;;;;;;18.88;53.05;99362.81;5012741;28;20022;-65
2022/02/17 01:29:12;;;;;;;7.22;1.92;;;;;;;18.88;52.92;99375.22;5012681;28;20101;-65
2022/02/17 01:31:38;;;;;;;5.93;1.60;;;;;;;18.87;52.92;99384.94;5012051;28;20084;-64
2022/02/17 01:34:03;;;;;;;6.53;1.88;;;;;;;18.84;52.79;99419.59;5012871;28;20040;-65
2022/02/17 01:36:28;;;;;;;8.23;1.80;;;;;;;18.83;52.52;99396.78;5012130;28;20034;-64
2022/02/17 01:38:55;;;;;;;9.02;1.80;;;;;;;18.82;52.46;99393.31;5012031;28;20026;-66
2022/02/17 01:41:21;;;;;;;7.22;1.63;;;;;;;18.82;52.40;99414.44;5012143;28;20030;-64
2022/02/17 01:43:50;;;;;;;5.93;1.80;;;;;;;18.79;52.16;99425.31;5012878;28;20088;-64
2022/02/17 01:46:16;;;;;;;7.82;2.00;;;;;;;18.79;52.23;99427.97;5011613;28;20041;-64
2022/02/17 01:48:41;;;;;;;6.47;2.05;;;;;;;18.77;52.03;99455.50;5012587;28;20026;-64
2022/02/17 01:51:06;;;;;;;6.15;1.83;;;;;;;18.76;52.25;99456.50;5012419;28;20100;-65
2022/02/17 01:53:32;;;;;;;6.68;2.00;;;;;;;18.74;51.89;99493.63;5011606;28;20021;-64
2022/02/17 01:55:59;;;;;;;7.10;1.88;;;;;;;18.73;51.75;99480.59;5012314;28;20386;-65
2022/02/17 01:58:25;;;;;;;5.20;1.65;;;;;;;18.71;51.72;99477.25;5011845;28;20034;-64
2022/02/17 02:00:51;;;;;;;5.95;1.70;;;;;;;18.69;51.56;99495.88;5012513;28;20088;-64
2022/02/17 02:03:16;;;;;;;4.97;1.70;;;;;;;18.66;51.66;99501.50;5011907;28;20426;-65
2022/02/17 02:05:41;;;;;;;7.82;1.83;;;;;;;18.65;51.68;99500.66;5011596;28;20466;-65
2022/02/17 02:08:13;;;;;;;8.82;1.98;;;;;;;18.64;51.89;99512.22;5012207;28;20394;-65
2022/02/17 02:10:38;;;;;;;9.05;2.53;;;;;;;18.63;51.77;99462.25;5012195;28;20033;-65
2022/02/17 02:13:04;;;;;;;7.35;1.92;;;;;;;18.62;51.54;99493.06;5011738;28;20389;-65
2022/02/17 02:15:48;;;;;;;8.07;2.28;;;;;;;18.61;51.44;99507.28;5011879;28;20057;-65
2022/02/17 02:18:14;;;;;;;8.70;1.85;;;;;;;18.59;51.10;99525.06;5011980;28;20466;-65
2022/02/17 02:20:57;;;;;;;6.90;1.90;;;;;;;18.56;50.96;99509.53;5014839;28;20036;-65
2022/02/17 02:23:23;;;;;;;8.43;2.00;;;;;;;18.56;51.13;99529.84;5015670;28;20025;-65
2022/02/17 02:25:51;;;;;;;8.15;2.45;;;;;;;18.55;51.12;99523.72;5016107;28;20018;-65
2022/02/17 02:28:21;;;;;;;8.05;3.10;;;;;;;18.53;51.27;99538.88;5014743;28;20030;-65
2022/02/17 02:30:48;;;;;;;8.93;2.10;;;;;;;18.51;50.44;99550.59;5015788;28;20036;-65
2022/02/17 02:33:14;;;;;;;9.40;2.10;;;;;;;18.51;50.43;99540.84;5015380;28;20113;-65
2022/02/17 02:35:40;;;;;;;8.65;2.20;;;;;;;18.49;50.75;99553.38;5014656;28;20049;-65
2022/02/17 02:38:06;;;;;;;8.90;2.50;;;;;;;18.47;50.58;99561.47;5015823;28;20033;-65
2022/02/17 02:40:31;;;;;;;11.93;2.58;;;;;;;18.47;50.60;99579.94;5015464;28;20021;-64
2022/02/17 02:42:56;;;;;;;9.07;2.58;;;;;;;18.46;50.82;99575.63;5015021;28;20017;-65
2022/02/17 02:45:22;;;;;;;9.18;2.20;;;;;;;18.44;50.88;99574.97;5015039;28;20034;-65
2022/02/17 02:47:47;;;;;;;9.85;2.50;;;;;;;18.44;50.24;99579.41;5014579;28;20065;-66
2022/02/17 02:50:12;;;;;;;8.52;2.53;;;;;;;18.42;50.08;99584.00;5014871;28;20049;-66
2022/02/17 02:52:38;;;;;;;9.07;2.43;;;;;;;18.41;50.40;99596.38;5015868;28;20069;-66
2022/02/17 02:55:03;;;;;;;7.80;2.25;;;;;;;18.41;49.66;99624.56;5014502;28;20291;-66
2022/02/17 02:57:29;;;;;;;9.68;2.30;;;;;;;18.39;49.50;99613.34;5014764;28;20037;-66
2022/02/17 02:59:54;;;;;;;8.37;2.27;;;;;;;18.39;49.49;99621.25;5015039;28;20042;-66
2022/02/17 03:02:19;;;;;;;9.70;2.10;;;;;;;18.36;49.52;99618.91;5014064;28;20271;-66
2022/02/17 03:04:44;;;;;;;6.95;1.95;;;;;;;18.35;49.78;99623.38;5014818;28;20806;-66
2022/02/17 03:07:10;;;;;;;7.07;2.45;;;;;;;18.34;49.01;99599.78;5015002;28;20485;-65
2022/02/17 03:09:35;;;;;;;6.90;2.45;;;;;;;18.32;49.22;99615.78;5014314;28;20109;-65
2022/02/17 03:12:01;;;;;;;9.00;2.28;;;;;;;18.32;49.32;99618.41;5014992;28;20032;-65
2022/02/17 03:14:26;;;;;;;9.73;2.60;;;;;;;18.30;49.49;99639.66;5014453;28;20046;-65
2022/02/17 03:16:52;;;;;;;8.20;2.20;;;;;;;18.31;48.93;99658.97;5013966;28;20287;-65
2022/02/17 03:19:17;;;;;;;7.95;2.53;;;;;;;18.28;49.23;99656.66;5014438;28;20025;-64
2022/02/17 03:21:42;;;;;;;9.80;2.60;;;;;;;18.27;49.49;99649.69;5014937;28;20041;-65
2022/02/17 03:24:08;;;;;;;10.32;2.70;;;;;;;18.25;49.35;99657.75;5013954;28;20271;-65
2022/02/17 03:26:33;;;;;;;10.38;2.55;;;;;;;18.25;49.06;99685.97;5014764;28;20018;-64
2022/02/17 03:28:58;;;;;;;9.60;2.40;;;;;;;18.24;48.58;99687.75;5014770;28;20046;-65
2022/02/17 03:31:23;;;;;;;9.05;3.15;;;;;;;18.23;49.30;99680.84;5013017;28;20030;-65
2022/02/17 03:33:49;;;;;;;8.27;2.30;;;;;;;18.23;49.43;99680.00;5014508;28;20026;-65
2022/02/17 03:36:14;;;;;;;11.88;2.80;;;;;;;18.22;49.04;99675.72;5014314;28;20034;-65
2022/02/17 03:38:39;;;;;;;9.63;2.60;;;;;;;18.21;49.61;99716.25;5013813;28;20029;-65
2022/02/17 03:41:05;;;;;;;11.47;3.10;;;;;;;18.20;48.89;99696.97;5014617;28;20052;-65
2022/02/17 03:43:30;;;;;;;10.50;2.65;;;;;;;18.21;48.98;99708.31;5013804;28;20267;-65
2022/02/17 03:45:55;;;;;;;11.63;2.75;;;;;;;18.19;48.99;99697.13;5013610;28;20034;-64
2022/02/17 03:48:20;;;;;;;11.32;2.65;;;;;;;18.19;49.18;99713.75;5013842;28;20076;-65
2022/02/17 03:50:46;;;;;;;10.67;2.63;;;;;;;18.18;48.99;99706.81;5014467;28;20374;-65
2022/02/17 03:53:11;;;;;;;11.33;2.80;;;;;;;18.17;48.71;99723.63;5013325;28;20284;-65
2022/02/17 03:55:36;;;;;;;9.52;2.50;;;;;;;18.18;49.26;99724.44;5014125;28;20302;-65
2022/02/17 03:58:02;;;;;;;9.65;2.70;;;;;;;18.16;48.64;99724.59;5013411;28;20018;-65
2022/02/17 04:00:27;;;;;;;9.18;2.60;;;;;;;18.13;49.13;99725.75;5013673;28;20073;-65
2022/02/17 04:02:52;;;;;;;9.85;2.78;;;;;;;18.14;48.61;99739.75;5014009;28;20041;-65
2022/02/17 04:05:18;;;;;;;9.45;2.72;;;;;;;18.12;48.67;99728.53;5012623;28;20118;-64
2022/02/17 04:07:44;;;;;;;12.70;3.03;;;;;;;18.13;48.48;99740.72;5013656;28;20482;-64
2022/02/17 04:10:09;;;;;;;8.73;2.60;;;;;;;18.10;49.39;99733.13;5013568;28;20068;-65
2022/02/17 04:12:34;;;;;;;11.10;2.90;;;;;;;18.11;48.77;99743.50;5012988;28;20263;-64
2022/02/17 04:14:59;;;;;;;10.70;3.20;;;;;;;18.11;48.91;99753.25;5013855;28;20034;-64
2022/02/17 04:17:25;;;;;;;8.17;2.23;;;;;;;18.11;49.40;99747.97;5013306;28;20307;-64
2022/02/17 04:19:50;;;;;;;12.95;3.05;;;;;;;18.13;49.24;99748.63;5013098;28;20105;-64
2022/02/17 04:22:19;;;;;;;11.02;2.72;;;;;;;18.13;49.33;99754.75;5013484;28;20490;-64
2022/02/17 04:24:44;;;;;;;10.35;2.45;;;;;;;18.15;49.57;99785.41;5013460;28;20078;-64
2022/02/17 04:27:09;;;;;;;12.02;3.00;;;;;;;18.17;49.44;99768.47;5012569;28;20065;-64
2022/02/17 04:29:35;;;;;;;9.82;2.65;;;;;;;18.18;48.78;99775.38;5013265;28;20425;-64
2022/02/17 04:32:00;;;;;;;13.98;3.30;;;;;;;18.20;49.20;99797.16;5013416;28;20029;-64
2022/02/17 04:34:25;;;;;;;12.10;2.90;;;;;;;18.21;48.89;99804.09;5012271;28;20095;-64
2022/02/17 04:36:51;;;;;;;9.30;3.05;;;;;;;18.22;49.17;99791.75;5013232;28;20049;-65
2022/02/17 04:39:16;;;;;;;10.45;2.75;;;;;;;18.23;48.49;99809.22;5013176;28;20072;-64
2022/02/17 04:44:25;;;;;;;9.77;2.75;;;;;;;18.22;48.98;99826.03;5012586;28;20556;-64
2022/02/17 04:46:50;;;;;;;11.68;3.65;;;;;;;18.26;48.63;99843.19;5013207;28;20034;-65
2022/02/17 04:49:16;;;;;;;9.63;2.75;;;;;;;18.27;48.85;99842.22;5012109;28;20017;-65
2022/02/17 04:51:41;;;;;;;11.00;3.10;;;;;;;18.26;48.52;99870.41;5013222;28;20025;-65
2022/02/17 04:54:07;;;;;;;12.35;3.30;;;;;;;18.27;48.84;99860.69;5012948;28;20073;-65
2022/02/17 04:56:33;;;;;;;10.75;2.60;;;;;;;18.27;48.66;99882.59;5012209;28;20026;-65
2022/02/17 04:58:58;;;;;;;10.38;3.00;;;;;;;18.28;48.07;99863.19;5013035;28;20056;-65
2022/02/17 05:01:23;;;;;;;11.97;3.07;;;;;;;18.28;47.94;99873.72;5011799;28;20466;-65
2022/02/17 05:03:49;;;;;;;12.65;3.22;;;;;;;18.28;47.79;99878.19;5012944;28;20288;-65
2022/02/17 05:06:14;;;;;;;10.48;3.10;;;;;;;18.28;48.13;99865.00;5012846;28;20022;-65
2022/02/17 05:08:45;;;;;;;13.17;3.40;;;;;;;18.28;48.55;99859.72;5012198;28;20614;-66
2022/02/17 05:11:10;;;;;;;12.32;3.05;;;;;;;18.28;48.31;99872.91;5012642;28;20386;-65
2022/02/17 05:13:35;;;;;;;9.67;3.23;;;;;;;18.28;48.73;99889.56;5012781;28;20038;-65
2022/02/17 05:16:01;;;;;;;11.60;3.10;;;;;;;18.27;48.12;99894.97;5011876;28;20291;-65
2022/02/17 05:18:26;;;;;;;12.55;3.28;;;;;;;18.27;48.21;99897.63;5012574;28;20362;-65
2022/02/17 05:20:51;;;;;;;14.65;4.18;;;;;;;18.27;47.92;99903.72;5013027;28;20509;-65
2022/02/17 05:23:16;;;;;;;10.93;3.30;;;;;;;18.28;48.21;99902.75;5011641;28;20030;-65
2022/02/17 05:25:42;;;;;;;12.93;3.58;;;;;;;18.28;48.01;99929.13;5012448;28;20033;-65
2022/02/17 05:28:09;;;;;;;11.65;3.05;;;;;;;18.29;48.06;99920.25;5012319;28;20056;-66
2022/02/17 05:30:43;;;;;;;13.43;3.58;;;;;;;18.29;48.15;99928.16;5011575;28;20061;-65
2022/02/17 05:33:12;;;;;;;10.88;3.03;;;;;;;18.28;47.75;99926.47;5012505;28;20022;-65
2022/02/17 05:35:38;;;;;;;15.45;3.85;;;;;;;18.29;47.94;99941.34;5012382;28;20450;-66
2022/02/17 05:38:04;;;;;;;13.00;3.50;;;;;;;18.30;48.34;99945.63;5011673;28;20057;-65
2022/02/17 05:40:30;;;;;;;12.18;3.38;;;;;;;18.28;47.60;99942.31;5012083;28;20030;-65
2022/02/17 05:42:56;;;;;;;11.07;3.38;;;;;;;18.29;47.52;99943.13;5012323;28;20469;-66
2022/02/17 05:45:21;;;;;;;12.23;4.22;;;;;;;18.29;47.87;99953.69;5011485;28;20088;-65
2022/02/17 05:47:46;;;;;;;15.80;3.75;;;;;;;18.30;47.65;99950.06;5012594;28;20422;-65
2022/02/17 05:50:12;;;;;;;12.00;3.20;;;;;;;18.28;47.79;99967.84;5012146;28;20488;-65
2022/02/17 05:52:37;;;;;;;10.80;3.38;;;;;;;18.27;47.48;99951.19;5011614;28;20018;-68
2022/02/17 05:55:03;;;;;;;13.95;3.08;;;;;;;18.28;47.46;99963.41;5015086;28;20405;-65
2022/02/17 05:57:28;;;;;;;10.85;3.10;;;;;;;18.27;47.55;99955.63;5015789;28;20066;-65
2022/02/17 05:59:54;;;;;;;12.68;3.10;;;;;;;18.29;47.53;99958.94;5015457;28;20045;-65
2022/02/17 06:02:19;;;;;;;12.97;3.00;;;;;;;18.29;47.42;99966.88;5016050;28;20022;-65
2022/02/17 06:04:44;;;;;;;10.40;2.73;;;;;;;18.27;47.10;99985.47;5015206;28;20042;-65
2022/02/17 06:07:13;;;;;;;13.05;3.33;;;;;;;18.28;46.91;99981.03;5015952;28;20275;-65
2022/02/17 06:09:38;;;;;;;13.35;3.33;;;;;;;18.27;47.24;99979.38;5016019;28;20217;-65
2022/02/17 06:12:04;;;;;;;10.38;3.00;;;;;;;18.28;48.11;100000.34;5015273;28;20157;-65
2022/02/17 06:14:29;;;;;;;13.57;3.25;;;;;;;18.30;48.41;100001.00;5015455;28;20018;-65
2022/02/17 06:16:55;;;;;;;11.85;3.00;;;;;;;18.31;48.64;100007.94;5015871;28;20042;-65
2022/02/17 06:19:20;;;;;;;12.07;3.38;;;;;;;18.33;48.24;100013.09;5014948;28;20124;-65
2022/02/17 06:21:45;;;;;;;9.38;2.72;;;;;;;18.34;48.26;100014.75;5015893;28;20014;-65
2022/02/17 06:24:10;;;;;;;12.23;3.20;;;;;;;18.39;48.17;100016.94;5015558;28;20473;-65
2022/02/17 06:26:38;;;;;;;12.27;3.63;;;;;;;18.40;48.90;100011.50;5014928;28;20631;-65
2022/02/17 06:29:04;;;;;;;12.43;3.42;;;;;;;18.42;48.35;100022.75;5015962;28;20291;-65
2022/02/17 06:31:31;;;;;;;10.90;2.97;;;;;;;18.45;47.36;100040.94;5015466;28;20052;-65
2022/02/17 06:33:57;;;;;;;12.15;3.30;;;;;;;18.48;48.75;100050.34;5015032;28;20283;-65
2022/02/17 06:36:23;;;;;;;9.88;2.75;;;;;;;18.53;48.95;100048.09;5015104;28;20049;-65
2022/02/17 06:38:48;;;;;;;11.95;3.58;;;;;;;18.59;49.00;100049.34;5015549;28;20030;-65
2022/02/17 06:41:17;;;;;;;12.55;2.88;;;;;;;18.63;49.20;100069.19;5014359;28;20061;-70
2022/02/17 06:43:42;;;;;;;11.90;2.95;;;;;;;18.65;49.47;100075.16;5015695;28;20121;-66
2022/02/17 06:46:08;;;;;;;9.57;2.63;;;;;;;18.72;49.45;100084.13;5015362;28;20061;-64
2022/02/17 06:48:33;;;;;;;8.38;2.88;;;;;;;18.72;49.33;100081.47;5014676;28;20755;-66
2022/02/17 06:50:58;;;;;;;11.13;3.25;;;;;;;18.79;49.34;100093.13;5015276;28;20022;-65
2022/02/17 06:53:23;;;;;;;10.90;3.10;;;;;;;18.82;49.31;100089.38;5014904;28;20072;-68
2022/02/17 06:55:49;;;;;;;11.93;2.97;;;;;;;18.83;49.83;100091.03;5014118;28;20030;-68
2022/02/17 06:58:16;;;;;;;12.35;3.05;;;;;;;18.89;49.37;100098.38;5014786;28;20279;-68
2022/02/17 07:00:41;;;;;;;10.00;3.03;;;;;;;18.93;49.04;100112.13;5015315;28;20034;-66
2022/02/17 07:03:07;;;;;;;13.10;2.40;;;;;;;18.96;48.92;100128.50;5013823;28;20092;-67
2022/02/17 07:05:33;;;;;;;9.77;2.88;;;;;;;18.98;49.15;100129.19;5014235;28;20041;-67
2022/02/17 07:07:59;;;;;;;10.88;3.00;;;;;;;19.02;48.81;100137.63;5014384;28;20030;-66
2022/02/17 07:13:11;;;;;;;10.60;2.63;;;;;;;19.04;48.36;100154.16;5014650;28;20035;-67
2022/02/17 07:15:36;;;;;;;10.45;2.95;;;;;;;19.07;48.95;100153.03;5013995;28;20037;-66
2022/02/17 07:18:07;;;;;;;10.93;2.70;;;;;;;19.08;49.22;100152.91;5014952;28;20415;-65
2022/02/17 07:20:35;;;;;;;10.52;2.88;;;;;;;19.11;49.10;100152.59;5014613;28;20018;-65
2022/02/17 07:23:02;;;;;;;11.27;2.70;;;;;;;19.14;49.14;100167.34;5013995;28;20036;-65
2022/02/17 07:25:27;;;;;;;12.18;2.90;;;;;;;19.16;49.24;100175.94;5014450;28;20022;-66
2022/02/17 07:27:56;;;;;;;9.05;2.45;;;;;;;19.17;49.33;100181.06;5014769;28;20431;-65
2022/02/17 07:30:21;;;;;;;12.05;3.40;;;;;;;19.19;49.39;100184.38;5013491;28;20044;-66
2022/02/17 07:32:47;;;;;;;8.75;2.53;;;;;;;19.25;49.45;100205.91;5014625;28;20033;-65
2022/02/17 07:35:12;;;;;;;10.30;2.50;;;;;;;19.33;49.96;100201.56;5014352;28;20018;-67
2022/02/17 07:37:41;;;;;;;10.07;2.63;;;;;;;19.37;49.78;100192.34;5013509;28;20030;-69
2022/02/17 07:40:09;;;;;;;8.27;2.55;;;;;;;19.36;49.10;100217.13;5014414;28;20026;-68
2022/02/17 07:42:35;;;;;;;8.85;2.80;;;;;;;19.35;49.07;100218.09;5014291;28;20022;-74
2022/02/17 07:45:00;;;;;;;11.98;3.03;;;;;;;19.33;49.16;100222.69;5013741;28;20022;-76
2022/02/17 07:47:26;;;;;;;10.65;3.25;;;;;;;19.35;49.67;100246.34;5013817;28;20572;-70
2022/02/17 07:49:54;;;;;;;10.93;2.75;;;;;;;19.34;49.95;100240.22;5014246;28;20041;-74
2022/02/17 07:52:23;;;;;;;10.00;3.05;;;;;;;19.34;49.41;100252.59;5013021;28;20026;-73
2022/02/17 07:54:48;;;;;;;9.68;2.60;;;;;;;19.34;49.50;100257.88;5014207;28;20042;-68
2022/02/17 07:57:17;;;;;;;10.20;2.58;;;;;;;19.34;49.20;100258.72;5013234;28;20540;-72
2022/02/17 07:59:43;;;;;;;9.85;2.72;;;;;;;19.35;49.55;100275.41;5014014;28;20052;-76
2022/02/17 08:02:08;;;;;;;13.18;2.95;;;;;;;19.34;49.60;100276.38;5013810;28;20033;-65
2022/02/17 08:04:35;;;;;;;10.45;3.28;;;;;;;19.35;49.44;100273.56;5013259;28;20052;-67
2022/02/17 08:07:01;;;;;;;13.35;3.63;;;;;;;19.35;49.17;100283.31;5014823;28;20018;-70
2022/02/17 08:09:26;;;;;;;10.93;2.97;;;;;;;19.33;47.96;100288.75;5014086;28;20040;-69
2022/02/17 08:11:52;;;;;;;11.18;3.08;;;;;;;19.33;48.77;100294.03;5013104;28;20025;-69
2022/02/17 08:14:17;;;;;;;10.65;2.78;;;;;;;19.32;48.89;100299.47;5013696;28;20026;-68
2022/02/17 08:16:43;;;;;;;13.35;2.42;;;;;;;19.34;48.92;100295.72;5013564;28;20049;-67
2022/02/17 08:19:11;;;;;;;9.45;2.58;;;;;;;19.40;48.66;100303.03;5012746;28;20049;-70
2022/02/17 08:21:36;;;;;;;12.25;2.63;;;;;;;19.49;48.29;100295.22;5013659;28;20488;-70
2022/02/17 08:24:01;;;;;;;8.48;2.20;;;;;;;19.58;48.08;100311.03;5014123;28;20112;-72
2022/02/17 08:26:27;;;;;;;9.50;2.90;;;;;;;19.66;48.45;100294.44;5012893;28;20025;-72
2022/02/17 08:28:57;;;;;;;12.38;2.85;;;;;;;19.74;48.28;100314.81;5014040;28;20050;-71
2022/02/17 08:31:23;;;;;;;11.57;2.75;;;;;;;19.81;48.23;100325.69;5013251;28;20115;-76
2022/02/17 08:33:48;;;;;;;9.93;2.83;;;;;;;19.85;47.78;100327.91;5012795;28;20049;-70
2022/02/17 08:36:14;;;;;;;10.17;2.60;;;;;;;19.82;47.82;100332.63;5013102;28;20030;-74
2022/02/17 08:38:39;;;;;;;8.02;2.10;;;;;;;19.78;47.84;100340.03;5013535;28;20282;-72
2022/02/17 08:41:06;;;;;;;8.98;2.72;;;;;;;19.74;48.01;100333.31;5012740;28;20403;-72
2022/02/17 08:43:32;;;;;;;10.00;2.78;;;;;;;19.72;48.04;100337.94;5013114;28;20109;-76
2022/02/17 08:45:57;;;;;;;10.07;2.42;;;;;;;19.67;47.64;100348.94;5013301;28;20026;-73
2022/02/17 08:48:22;;;;;;;9.80;2.57;;;;;;;19.64;47.88;100348.41;5011861;28;20389;-72
2022/02/17 08:50:48;;;;;;;11.85;2.70;;;;;;;19.58;45.56;100345.38;5013264;28;20675;-71
2022/02/17 08:53:15;;;;;;;10.02;2.80;;;;;;;19.65;46.49;100364.13;5012991;28;20021;-68
2022/02/17 08:55:41;;;;;;;11.68;2.50;;;;;;;19.69;46.55;100365.53;5012288;28;20084;-70
2022/02/17 08:58:09;;;;;;;10.95;2.58;;;;;;;19.72;46.41;100359.91;5013010;28;20470;-71
2022/02/17 09:00:34;;;;;;;11.25;2.50;;;;;;;19.76;46.70;100360.50;5012310;28;20035;-71
2022/02/17 09:02:59;;;;;;;7.65;2.08;;;;;;;19.80;46.44;100385.66;5012956;28;20081;-71
2022/02/17 09:05:27;;;;;;;10.30;2.50;;;;;;;19.82;46.01;100385.50;5012372;28;20072;-72
2022/02/17 09:07:52;;;;;;;11.20;2.97;;;;;;;19.83;46.25;100395.94;5012366;28;20671;-73
2022/02/17 09:10:18;;;;;;;8.77;2.22;;;;;;;19.84;46.06;100391.50;5012669;28;20073;-69
2022/02/17 09:12:43;;;;;;;10.40;2.28;;;;;;;19.78;44.53;100411.41;5012777;28;20458;-65
2022/02/17 09:15:09;;;;;;;11.43;3.10;;;;;;;19.73;45.48;100421.56;5011778;28;20025;-66
2022/02/17 09:17:35;;;;;;;9.35;2.22;;;;;;;19.60;42.73;100423.69;5012501;28;20283;-69
2022/02/17 09:20:03;;;;;;;9.85;1.98;;;;;;;19.52;44.29;100429.72;5013024;28;20044;-68
2022/02/17 09:22:28;;;;;;;9.63;2.45;;;;;;;19.47;44.80;100451.28;5011693;28;20022;-69
2022/02/17 09:24:57;;;;;;;11.53;2.63;;;;;;;19.43;45.01;100428.75;5012751;28;20033;-68
2022/02/17 09:27:22;;;;;;;6.72;1.67;;;;;;;19.42;45.80;100435.00;5012297;28;20357;-68
2022/02/17 09:29:48;;;;;;;9.75;2.60;;;;;;;19.38;46.65;100445.03;5011341;28;20056;-68
2022/02/17 09:32:13;;;;;;;8.30;2.10;;;;;;;19.37;46.95;100442.53;5012227;28;20037;-69
2022/02/17 09:34:40;;;;;;;7.82;2.30;;;;;;;19.38;46.40;100460.06;5012710;28;20038;-69
2022/02/17 09:37:05;;;;;;;8.73;2.08;;;;;;;19.38;44.72;100449.50;5012025;28;20040;-70
2022/02/17 09:39:33;;;;;;;7.38;1.70;;;;;;;19.32;44.75;100456.16;5012340;28;20026;-70
2022/02/17 09:42:01;;;;;;;9.25;2.17;;;;;;;19.30;45.36;100452.03;5013404;28;20041;-70
2022/02/17 09:44:27;;;;;;;10.05;2.00;;;;;;;19.29;46.13;100445.88;5011558;28;20032;-70
2022/02/17 09:46:59;;;;;;;8.27;2.40;;;;;;;19.27;43.71;100453.13;5013157;28;20557;-63
2022/02/17 09:49:24;;;;;;;8.23;2.05;;;;;;;19.29;43.73;100479.41;5013140;28;20034;-67
2022/02/17 09:51:51;;;;;;;8.48;2.40;;;;;;;19.34;45.36;100470.09;5013512;28;20157;-68
2022/02/17 09:54:18;;;;;;;9.65;2.13;;;;;;;19.42;46.11;100489.69;5012563;28;20374;-67
2022/02/17 09:56:44;;;;;;;10.68;1.92;;;;;;;19.45;45.33;100492.03;5011934;28;20425;-69
2022/02/17 09:59:10;;;;;;;8.05;1.98;;;;;;;19.48;45.26;100489.94;5012693;28;20029;-72
2022/02/17 10:01:36;;;;;;;9.50;2.47;;;;;;;19.43;42.70;100507.22;5012617;28;20108;-70
2022/02/17 10:04:18;;;;;;;7.15;1.88;;;;;;;19.39;45.12;100502.19;5011636;28;20089;-70
2022/02/17 10:06:47;;;;;;;10.57;2.10;;;;;;;19.37;45.22;100506.78;5012824;28;20129;-70
2022/02/17 10:09:14;;;;;;;8.75;1.95;;;;;;;19.36;45.54;100512.22;5012435;28;20153;-68
2022/02/17 10:11:40;;;;;;;6.93;1.77;;;;;;;19.36;45.19;100528.91;5011744;28;20503;-73
2022/02/17 10:14:12;;;;;;;10.32;2.00;;;;;;;19.35;45.63;100536.97;5012934;28;20018;-70
2022/02/17 10:16:59;;;;;;;8.00;2.28;;;;;;;19.33;45.51;100542.41;5012491;28;20030;-73
2022/02/17 10:19:34;;;;;;;10.73;2.13;;;;;;;19.34;45.74;100530.00;5011017;28;20030;-70
2022/02/17 10:22:00;;;;;;;8.45;1.85;;;;;;;19.34;45.72;100548.50;5012005;28;20038;-73
2022/02/17 10:24:33;;;;;;;7.03;1.77;;;;;;;19.34;45.71;100540.59;5011547;28;20092;-70
2022/02/17 10:27:14;;;;;;;8.85;1.65;;;;;;;19.38;46.01;100556.03;5011805;28;20057;-69
2022/02/17 10:29:40;;;;;;;8.70;1.90;;;;;;;19.41;46.17;100560.19;5011890;28;20049;-67
2022/02/17 10:32:08;;;;;;;10.18;1.92;;;;;;;19.42;46.44;100569.78;5011341;28;20029;-67
2022/02/17 10:34:34;;;;;;;6.82;1.40;;;;;;;19.42;46.39;100577.72;5012302;28;20037;-67
2022/02/17 10:37:00;;;;;;;6.65;1.70;;;;;;;19.42;46.37;100567.13;5012119;28;20042;-67
2022/02/17 10:39:28;;;;;;;8.32;1.65;;;;;;;19.40;46.30;100572.56;5010927;28;20385;-66
2022/02/17 10:42:16;;;;;;;6.40;1.70;;;;;;;19.40;46.05;100580.50;5013984;28;20029;-67
2022/02/17 10:44:46;;;;;;;10.07;1.50;;;;;;;19.41;46.46;100578.69;5015344;28;20028;-68
2022/02/17 10:47:18;;;;;;;7.28;1.65;;;;;;;19.41;46.34;100581.34;5014265;28;20036;-68
2022/02/17 10:49:45;;;;;;;6.22;1.67;;;;;;;19.42;46.14;100582.16;5015076;28;20486;-68
2022/02/17 10:52:11;;;;;;;5.65;1.55;;;;;;;19.42;46.50;100587.44;5015108;28;20026;-67
2022/02/17 10:54:39;;;;;;;4.97;1.33;;;;;;;19.43;46.42;100591.78;5014321;28;20029;-67
2022/02/17 10:57:05;;;;;;;9.48;1.77;;;;;;;19.43;46.81;100594.41;5015182;28;20038;-67
2022/02/17 11:02:27;;;;;;;5.90;1.60;;;;;;;19.44;46.82;100604.00;5013784;28;20646;-67
2022/02/17 11:04:53;;;;;;;7.43;1.52;;;;;;;19.44;46.92;100617.22;5014889;28;20140;-69
2022/02/17 11:07:18;;;;;;;6.85;1.60;;;;;;;19.43;46.55;100619.03;5013955;28;20068;-69
2022/02/17 11:09:45;;;;;;;4.85;1.40;;;;;;;19.43;46.08;100607.63;5014830;28;20018;-69
2022/02/17 11:12:14;;;;;;;6.57;1.42;;;;;;;19.44;45.91;100619.84;5014447;28;20037;-69
2022/02/17 11:14:42;;;;;;;9.18;1.70;;;;;;;19.43;45.90;100616.38;5013958;28;20037;-72
2022/02/17 11:17:12;;;;;;;9.15;1.40;;;;;;;19.45;45.90;100625.00;5014640;28;20126;-74
2022/02/17 11:19:39;;;;;;;7.60;1.67;;;;;;;19.45;46.20;100629.47;5014789;28;20092;-70
2022/02/17 11:22:07;;;;;;;9.07;1.77;;;;;;;19.45;46.02;100632.94;5014262;28;20441;-70
2022/02/17 11:24:52;;;;;;;5.72;1.40;;;;;;;19.45;46.54;100638.22;5014485;28;20026;-71
2022/02/17 11:27:18;;;;;;;8.20;1.70;;;;;;;19.45;46.56;100646.16;5014526;28;20022;-71
2022/02/17 11:29:45;;;;;;;6.72;1.90;;;;;;;19.46;46.27;100633.78;5013864;28;20025;-69
2022/02/17 11:32:14;;;;;;;6.55;1.70;;;;;;;19.46;46.04;100624.03;5014273;28;20105;-70